sensor_id;sensor_type;location;lat;lon;timestamp;P1;durP1;ratioP1;P2;durP2;ratioP2
67819;SDS011;54618;52.018;5.576;2023-06-14T00:01:35;3.42;;;2.08;;
67819;SDS011;54618;52.018;5.576;2023-06-14T00:04:00;4.55;;;2.42;;
67819;SDS011;54618;52.018;5.576;2023-06-14T00:06:28;5.75;;;2.10;;
67819;SDS011;54618;52.018;5.576;2023-06-14T00:08:53;6.70;;;2.08;;
67819;SDS011;54618;52.018;5.576;2023-06-14T00:11:19;7.10;;;2.30;;
67819;SDS011;54618;52.018;5.576;2023-06-14T00:13:45;5.28;;;2.40;;
67819;SDS011;54618;52.018;5.576;2023-06-14T00:16:12;4.90;;;2.50;;
67819;SDS011;54618;52.018;5.576;2023-06-14T00:18:37;5.88;;;2.40;;
67819;SDS011;54618;52.018;5.576;2023-06-14T00:21:03;4.75;;;2.00;;
67819;SDS011;54618;52.018;5.576;2023-06-14T00:23:29;7.47;;;2.13;;
67819;SDS011;54618;52.018;5.576;2023-06-14T00:25:55;6.80;;;2.55;;
67819;SDS011;54618;52.018;5.576;2023-06-14T00:28:20;7.20;;;2.50;;
67819;SDS011;54618;52.018;5.576;2023-06-14T00:30:46;5.00;;;2.10;;
67819;SDS011;54618;52.018;5.576;2023-06-14T00:33:12;5.72;;;2.20;;
67819;SDS011;54618;52.018;5.576;2023-06-14T00:35:38;6.10;;;2.33;;
67819;SDS011;54618;52.018;5.576;2023-06-14T00:38:03;5.00;;;2.40;;
67819;SDS011;54618;52.018;5.576;2023-06-14T00:40:29;5.32;;;2.22;;
67819;SDS011;54618;52.018;5.576;2023-06-14T00:42:55;3.80;;;2.00;;
67819;SDS011;54618;52.018;5.576;2023-06-14T00:45:20;5.05;;;2.20;;
67819;SDS011;54618;52.018;5.576;2023-06-14T00:47:48;6.35;;;2.15;;
67819;SDS011;54618;52.018;5.576;2023-06-14T00:50:17;8.13;;;2.00;;
67819;SDS011;54618;52.018;5.576;2023-06-14T00:52:45;5.13;;;2.30;;
67819;SDS011;54618;52.018;5.576;2023-06-14T00:55:12;6.20;;;2.22;;
67819;SDS011;54618;52.018;5.576;2023-06-14T00:57:38;4.60;;;2.30;;
67819;SDS011;54618;52.018;5.576;2023-06-14T01:00:05;5.03;;;2.22;;
67819;SDS011;54618;52.018;5.576;2023-06-14T01:02:34;4.90;;;2.17;;
67819;SDS011;54618;52.018;5.576;2023-06-14T01:05:01;3.47;;;1.88;;
67819;SDS011;54618;52.018;5.576;2023-06-14T01:07:38;5.03;;;2.22;;
67819;SDS011;54618;52.018;5.576;2023-06-14T01:13:15;7.00;;;2.25;;
67819;SDS011;54618;52.018;5.576;2023-06-14T01:15:46;5.95;;;1.85;;
67819;SDS011;54618;52.018;5.576;2023-06-14T01:18:13;8.10;;;2.22;;
67819;SDS011;54618;52.018;5.576;2023-06-14T01:20:45;6.88;;;2.10;;
67819;SDS011;54618;52.018;5.576;2023-06-14T01:23:14;6.13;;;2.20;;
67819;SDS011;54618;52.018;5.576;2023-06-14T01:25:43;8.55;;;2.42;;
67819;SDS011;54618;52.018;5.576;2023-06-14T01:28:09;19.13;;;2.38;;
67819;SDS011;54618;52.018;5.576;2023-06-14T01:30:36;5.38;;;2.40;;
67819;SDS011;54618;52.018;5.576;2023-06-14T01:33:20;7.07;;;2.08;;
67819;SDS011;54618;52.018;5.576;2023-06-14T01:35:48;13.73;;;2.42;;
67819;SDS011;54618;52.018;5.576;2023-06-14T01:38:19;6.87;;;1.90;;
67819;SDS011;54618;52.018;5.576;2023-06-14T01:40:46;7.40;;;2.15;;
67819;SDS011;54618;52.018;5.576;2023-06-14T01:43:13;9.73;;;2.40;;
67819;SDS011;54618;52.018;5.576;2023-06-14T01:45:41;8.25;;;2.40;;
67819;SDS011;54618;52.018;5.576;2023-06-14T01:48:09;6.80;;;2.00;;
67819;SDS011;54618;52.018;5.576;2023-06-14T01:50:35;5.13;;;2.10;;
67819;SDS011;54618;52.018;5.576;2023-06-14T01:53:00;5.07;;;2.00;;
67819;SDS011;54618;52.018;5.576;2023-06-14T01:55:26;3.50;;;2.05;;
67819;SDS011;54618;52.018;5.576;2023-06-14T01:57:52;4.32;;;2.05;;
67819;SDS011;54618;52.018;5.576;2023-06-14T02:00:18;4.55;;;2.30;;
67819;SDS011;54618;52.018;5.576;2023-06-14T02:02:44;11.93;;;2.25;;
67819;SDS011;54618;52.018;5.576;2023-06-14T02:05:10;6.30;;;2.10;;
67819;SDS011;54618;52.018;5.576;2023-06-14T02:07:36;13.35;;;2.85;;
67819;SDS011;54618;52.018;5.576;2023-06-14T02:10:02;14.02;;;2.35;;
67819;SDS011;54618;52.018;5.576;2023-06-14T02:12:29;7.45;;;2.30;;
67819;SDS011;54618;52.018;5.576;2023-06-14T02:14:54;6.65;;;2.25;;
67819;SDS011;54618;52.018;5.576;2023-06-14T02:17:21;8.20;;;2.35;;
67819;SDS011;54618;52.018;5.576;2023-06-14T02:19:47;5.13;;;2.17;;
67819;SDS011;54618;52.018;5.576;2023-06-14T02:22:13;5.68;;;2.20;;
67819;SDS011;54618;52.018;5.576;2023-06-14T02:24:40;4.88;;;1.90;;
67819;SDS011;54618;52.018;5.576;2023-06-14T02:27:06;7.53;;;2.50;;
67819;SDS011;54618;52.018;5.576;2023-06-14T02:29:31;7.57;;;2.28;;
67819;SDS011;54618;52.018;5.576;2023-06-14T02:31:57;5.97;;;2.30;;
67819;SDS011;54618;52.018;5.576;2023-06-14T02:34:22;13.95;;;2.65;;
67819;SDS011;54618;52.018;5.576;2023-06-14T02:36:48;7.32;;;2.72;;
67819;SDS011;54618;52.018;5.576;2023-06-14T02:39:14;6.65;;;2.20;;
67819;SDS011;54618;52.018;5.576;2023-06-14T02:41:40;4.65;;;2.20;;
67819;SDS011;54618;52.018;5.576;2023-06-14T02:44:06;7.90;;;2.47;;
67819;SDS011;54618;52.018;5.576;2023-06-14T02:46:32;4.65;;;2.40;;
67819;SDS011;54618;52.018;5.576;2023-06-14T02:48:58;8.88;;;2.78;;
67819;SDS011;54618;52.018;5.576;2023-06-14T02:51:24;5.50;;;2.25;;
67819;SDS011;54618;52.018;5.576;2023-06-14T02:53:50;5.70;;;1.95;;
67819;SDS011;54618;52.018;5.576;2023-06-14T02:56:16;3.85;;;2.00;;
67819;SDS011;54618;52.018;5.576;2023-06-14T02:58:42;8.70;;;2.33;;
67819;SDS011;54618;52.018;5.576;2023-06-14T03:01:08;5.43;;;2.13;;
67819;SDS011;54618;52.018;5.576;2023-06-14T03:03:37;4.07;;;2.13;;
67819;SDS011;54618;52.018;5.576;2023-06-14T03:06:03;8.18;;;2.50;;
67819;SDS011;54618;52.018;5.576;2023-06-14T03:08:30;9.38;;;2.17;;
67819;SDS011;54618;52.018;5.576;2023-06-14T03:11:03;7.05;;;1.83;;
67819;SDS011;54618;52.018;5.576;2023-06-14T03:13:30;7.70;;;2.10;;
67819;SDS011;54618;52.018;5.576;2023-06-14T03:15:57;5.53;;;2.70;;
67819;SDS011;54618;52.018;5.576;2023-06-14T03:18:23;6.35;;;2.38;;
67819;SDS011;54618;52.018;5.576;2023-06-14T03:20:48;9.48;;;2.25;;
67819;SDS011;54618;52.018;5.576;2023-06-14T03:23:16;7.40;;;2.30;;
67819;SDS011;54618;52.018;5.576;2023-06-14T03:25:46;4.25;;;2.13;;
67819;SDS011;54618;52.018;5.576;2023-06-14T03:28:12;6.68;;;2.20;;
67819;SDS011;54618;52.018;5.576;2023-06-14T03:30:37;7.10;;;2.20;;
67819;SDS011;54618;52.018;5.576;2023-06-14T03:33:03;8.60;;;2.50;;
67819;SDS011;54618;52.018;5.576;2023-06-14T03:35:29;7.57;;;2.45;;
67819;SDS011;54618;52.018;5.576;2023-06-14T03:37:55;4.82;;;2.40;;
67819;SDS011;54618;52.018;5.576;2023-06-14T03:40:21;6.20;;;2.67;;
67819;SDS011;54618;52.018;5.576;2023-06-14T03:42:47;8.95;;;2.45;;
67819;SDS011;54618;52.018;5.576;2023-06-14T03:45:12;7.05;;;2.65;;
67819;SDS011;54618;52.018;5.576;2023-06-14T03:47:38;6.03;;;2.08;;
67819;SDS011;54618;52.018;5.576;2023-06-14T03:50:04;8.70;;;2.50;;
67819;SDS011;54618;52.018;5.576;2023-06-14T03:52:30;8.02;;;2.20;;
67819;SDS011;54618;52.018;5.576;2023-06-14T03:54:56;4.35;;;1.90;;
67819;SDS011;54618;52.018;5.576;2023-06-14T03:57:22;6.40;;;2.22;;
67819;SDS011;54618;52.018;5.576;2023-06-14T03:59:48;12.15;;;2.15;;
67819;SDS011;54618;52.018;5.576;2023-06-14T04:02:14;5.20;;;2.10;;
67819;SDS011;54618;52.018;5.576;2023-06-14T04:04:44;6.10;;;2.20;;
67819;SDS011;54618;52.018;5.576;2023-06-14T04:07:13;7.85;;;2.30;;
67819;SDS011;54618;52.018;5.576;2023-06-14T04:09:45;6.90;;;2.30;;
67819;SDS011;54618;52.018;5.576;2023-06-14T04:12:14;6.78;;;2.10;;
67819;SDS011;54618;52.018;5.576;2023-06-14T04:14:40;3.85;;;2.10;;
67819;SDS011;54618;52.018;5.576;2023-06-14T04:17:05;6.93;;;1.92;;
67819;SDS011;54618;52.018;5.576;2023-06-14T04:19:31;4.60;;;2.15;;
67819;SDS011;54618;52.018;5.576;2023-06-14T04:21:58;16.83;;;2.42;;
67819;SDS011;54618;52.018;5.576;2023-06-14T04:24:26;5.78;;;2.17;;
67819;SDS011;54618;52.018;5.576;2023-06-14T04:26:57;8.40;;;2.15;;
67819;SDS011;54618;52.018;5.576;2023-06-14T04:29:26;6.47;;;2.20;;
67819;SDS011;54618;52.018;5.576;2023-06-14T04:31:54;5.05;;;1.95;;
67819;SDS011;54618;52.018;5.576;2023-06-14T04:34:24;6.80;;;2.45;;
67819;SDS011;54618;52.018;5.576;2023-06-14T04:36:54;10.88;;;2.30;;
67819;SDS011;54618;52.018;5.576;2023-06-14T04:39:24;4.80;;;2.00;;
67819;SDS011;54618;52.018;5.576;2023-06-14T04:41:50;5.95;;;2.20;;
67819;SDS011;54618;52.018;5.576;2023-06-14T04:44:18;6.53;;;2.20;;
67819;SDS011;54618;52.018;5.576;2023-06-14T04:46:45;4.60;;;1.90;;
67819;SDS011;54618;52.018;5.576;2023-06-14T04:49:17;8.00;;;2.05;;
67819;SDS011;54618;52.018;5.576;2023-06-14T04:51:43;8.50;;;2.15;;
67819;SDS011;54618;52.018;5.576;2023-06-14T04:54:10;10.75;;;2.50;;
67819;SDS011;54618;52.018;5.576;2023-06-14T04:56:40;18.20;;;2.63;;
67819;SDS011;54618;52.018;5.576;2023-06-14T04:59:07;13.15;;;2.33;;
67819;SDS011;54618;52.018;5.576;2023-06-14T05:01:34;43.47;;;3.42;;
67819;SDS011;54618;52.018;5.576;2023-06-14T05:03:59;9.80;;;2.50;;
67819;SDS011;54618;52.018;5.576;2023-06-14T05:06:25;8.68;;;2.30;;
67819;SDS011;54618;52.018;5.576;2023-06-14T05:08:53;8.70;;;2.47;;
67819;SDS011;54618;52.018;5.576;2023-06-14T05:11:19;9.00;;;2.45;;
67819;SDS011;54618;52.018;5.576;2023-06-14T05:13:45;14.45;;;2.70;;
67819;SDS011;54618;52.018;5.576;2023-06-14T05:16:12;10.70;;;2.40;;
67819;SDS011;54618;52.018;5.576;2023-06-14T05:18:38;5.63;;;2.05;;
67819;SDS011;54618;52.018;5.576;2023-06-14T05:21:05;15.43;;;2.95;;
67819;SDS011;54618;52.018;5.576;2023-06-14T05:23:31;11.60;;;2.50;;
67819;SDS011;54618;52.018;5.576;2023-06-14T05:25:56;10.75;;;2.38;;
67819;SDS011;54618;52.018;5.576;2023-06-14T05:28:22;49.70;;;3.80;;
67819;SDS011;54618;52.018;5.576;2023-06-14T05:30:48;13.30;;;2.88;;
67819;SDS011;54618;52.018;5.576;2023-06-14T05:33:13;8.63;;;2.50;;
67819;SDS011;54618;52.018;5.576;2023-06-14T05:35:39;10.77;;;2.35;;
67819;SDS011;54618;52.018;5.576;2023-06-14T05:38:04;12.20;;;2.35;;
67819;SDS011;54618;52.018;5.576;2023-06-14T05:40:32;7.22;;;2.55;;
67819;SDS011;54618;52.018;5.576;2023-06-14T05:42:58;20.63;;;3.00;;
67819;SDS011;54618;52.018;5.576;2023-06-14T05:45:23;6.65;;;2.08;;
67819;SDS011;54618;52.018;5.576;2023-06-14T05:47:49;7.95;;;2.10;;
67819;SDS011;54618;52.018;5.576;2023-06-14T05:50:18;12.27;;;2.45;;
67819;SDS011;54618;52.018;5.576;2023-06-14T05:52:43;5.80;;;2.38;;
67819;SDS011;54618;52.018;5.576;2023-06-14T05:55:09;5.63;;;2.28;;
67819;SDS011;54618;52.018;5.576;2023-06-14T05:57:37;11.27;;;2.50;;
67819;SDS011;54618;52.018;5.576;2023-06-14T06:00:03;11.40;;;2.80;;
67819;SDS011;54618;52.018;5.576;2023-06-14T06:02:55;12.10;;;2.58;;
67819;SDS011;54618;52.018;5.576;2023-06-14T06:05:22;14.88;;;2.50;;
67819;SDS011;54618;52.018;5.576;2023-06-14T06:07:48;7.45;;;2.13;;
67819;SDS011;54618;52.018;5.576;2023-06-14T06:10:14;18.98;;;2.78;;
67819;SDS011;54618;52.018;5.576;2023-06-14T06:12:41;15.15;;;2.42;;
67819;SDS011;54618;52.018;5.576;2023-06-14T06:15:07;4.75;;;2.20;;
67819;SDS011;54618;52.018;5.576;2023-06-14T06:17:36;6.28;;;2.40;;
67819;SDS011;54618;52.018;5.576;2023-06-14T06:20:03;10.13;;;2.25;;
67819;SDS011;54618;52.018;5.576;2023-06-14T06:22:30;12.15;;;2.42;;
67819;SDS011;54618;52.018;5.576;2023-06-14T06:24:56;9.68;;;2.20;;
67819;SDS011;54618;52.018;5.576;2023-06-14T06:27:24;15.32;;;2.75;;
67819;SDS011;54618;52.018;5.576;2023-06-14T06:29:50;8.40;;;2.28;;
67819;SDS011;54618;52.018;5.576;2023-06-14T06:32:16;24.35;;;3.10;;
67819;SDS011;54618;52.018;5.576;2023-06-14T06:34:42;10.45;;;2.40;;
67819;SDS011;54618;52.018;5.576;2023-06-14T06:37:08;12.95;;;2.88;;
67819;SDS011;54618;52.018;5.576;2023-06-14T06:39:34;9.32;;;2.40;;
67819;SDS011;54618;52.018;5.576;2023-06-14T06:42:00;9.27;;;2.15;;
67819;SDS011;54618;52.018;5.576;2023-06-14T06:44:25;11.75;;;2.47;;
67819;SDS011;54618;52.018;5.576;2023-06-14T06:46:51;8.02;;;2.20;;
67819;SDS011;54618;52.018;5.576;2023-06-14T06:49:20;8.35;;;2.58;;
67819;SDS011;54618;52.018;5.576;2023-06-14T06:51:58;6.03;;;2.47;;
67819;SDS011;54618;52.018;5.576;2023-06-14T06:54:28;31.92;;;3.58;;
67819;SDS011;54618;52.018;5.576;2023-06-14T06:56:54;5.55;;;2.20;;
67819;SDS011;54618;52.018;5.576;2023-06-14T06:59:20;19.75;;;3.08;;
67819;SDS011;54618;52.018;5.576;2023-06-14T07:01:46;8.27;;;2.42;;
67819;SDS011;54618;52.018;5.576;2023-06-14T07:04:15;9.35;;;2.20;;
67819;SDS011;54618;52.018;5.576;2023-06-14T07:06:41;18.48;;;3.20;;
67819;SDS011;54618;52.018;5.576;2023-06-14T07:09:08;19.95;;;3.40;;
67819;SDS011;54618;52.018;5.576;2023-06-14T07:11:40;15.40;;;2.28;;
67819;SDS011;54618;52.018;5.576;2023-06-14T07:14:07;22.05;;;3.17;;
67819;SDS011;54618;52.018;5.576;2023-06-14T07:16:33;20.70;;;2.88;;
67819;SDS011;54618;52.018;5.576;2023-06-14T07:18:58;8.95;;;2.58;;
67819;SDS011;54618;52.018;5.576;2023-06-14T07:21:25;8.75;;;1.95;;
67819;SDS011;54618;52.018;5.576;2023-06-14T07:23:53;46.55;;;3.65;;
67819;SDS011;54618;52.018;5.576;2023-06-14T07:26:19;17.42;;;2.33;;
67819;SDS011;54618;52.018;5.576;2023-06-14T07:28:46;8.88;;;2.33;;
67819;SDS011;54618;52.018;5.576;2023-06-14T07:31:15;15.20;;;2.30;;
67819;SDS011;54618;52.018;5.576;2023-06-14T07:33:41;23.30;;;3.08;;
67819;SDS011;54618;52.018;5.576;2023-06-14T07:36:07;14.57;;;2.30;;
67819;SDS011;54618;52.018;5.576;2023-06-14T07:38:33;19.90;;;2.60;;
67819;SDS011;54618;52.018;5.576;2023-06-14T07:40:59;5.72;;;1.88;;
67819;SDS011;54618;52.018;5.576;2023-06-14T07:43:26;12.40;;;1.90;;
67819;SDS011;54618;52.018;5.576;2023-06-14T07:45:51;8.27;;;1.77;;
67819;SDS011;54618;52.018;5.576;2023-06-14T07:48:17;22.65;;;2.63;;
67819;SDS011;54618;52.018;5.576;2023-06-14T07:50:43;12.10;;;1.95;;
67819;SDS011;54618;52.018;5.576;2023-06-14T07:53:09;4.82;;;1.60;;
67819;SDS011;54618;52.018;5.576;2023-06-14T07:55:35;33.00;;;3.03;;
67819;SDS011;54618;52.018;5.576;2023-06-14T07:58:02;4.05;;;1.52;;
67819;SDS011;54618;52.018;5.576;2023-06-14T08:00:28;24.42;;;2.20;;
67819;SDS011;54618;52.018;5.576;2023-06-14T08:02:57;15.20;;;1.70;;
67819;SDS011;54618;52.018;5.576;2023-06-14T08:05:24;10.43;;;1.67;;
67819;SDS011;54618;52.018;5.576;2023-06-14T08:07:53;14.20;;;1.87;;
67819;SDS011;54618;52.018;5.576;2023-06-14T08:10:19;38.47;;;3.05;;
67819;SDS011;54618;52.018;5.576;2023-06-14T08:12:45;14.25;;;1.92;;
67819;SDS011;54618;52.018;5.576;2023-06-14T08:15:19;9.27;;;1.50;;
67819;SDS011;54618;52.018;5.576;2023-06-14T08:17:45;14.07;;;1.70;;
67819;SDS011;54618;52.018;5.576;2023-06-14T08:20:11;8.00;;;1.45;;
67819;SDS011;54618;52.018;5.576;2023-06-14T08:22:38;5.82;;;1.40;;
67819;SDS011;54618;52.018;5.576;2023-06-14T08:25:07;11.80;;;1.70;;
67819;SDS011;54618;52.018;5.576;2023-06-14T08:27:33;3.40;;;1.20;;
67819;SDS011;54618;52.018;5.576;2023-06-14T08:29:59;7.07;;;1.63;;
67819;SDS011;54618;52.018;5.576;2023-06-14T08:32:25;4.78;;;1.55;;
67819;SDS011;54618;52.018;5.576;2023-06-14T08:34:50;6.85;;;1.40;;
67819;SDS011;54618;52.018;5.576;2023-06-14T08:37:20;4.38;;;1.30;;
67819;SDS011;54618;52.018;5.576;2023-06-14T08:39:45;31.15;;;2.22;;
67819;SDS011;54618;52.018;5.576;2023-06-14T08:42:14;34.25;;;2.85;;
67819;SDS011;54618;52.018;5.576;2023-06-14T08:44:43;8.75;;;1.40;;
67819;SDS011;54618;52.018;5.576;2023-06-14T08:47:08;17.77;;;2.00;;
67819;SDS011;54618;52.018;5.576;2023-06-14T08:49:35;13.85;;;1.60;;
67819;SDS011;54618;52.018;5.576;2023-06-14T08:52:02;9.13;;;1.50;;
67819;SDS011;54618;52.018;5.576;2023-06-14T08:54:30;9.30;;;1.30;;
67819;SDS011;54618;52.018;5.576;2023-06-14T08:56:59;30.23;;;2.08;;
67819;SDS011;54618;52.018;5.576;2023-06-14T08:59:28;7.15;;;1.33;;
67819;SDS011;54618;52.018;5.576;2023-06-14T09:01:56;14.60;;;1.50;;
67819;SDS011;54618;52.018;5.576;2023-06-14T09:04:22;5.32;;;1.40;;
67819;SDS011;54618;52.018;5.576;2023-06-14T09:06:49;28.52;;;2.83;;
67819;SDS011;54618;52.018;5.576;2023-06-14T09:09:20;4.90;;;1.20;;
67819;SDS011;54618;52.018;5.576;2023-06-14T09:11:46;3.50;;;1.25;;
67819;SDS011;54618;52.018;5.576;2023-06-14T09:14:15;11.48;;;1.77;;
67819;SDS011;54618;52.018;5.576;2023-06-14T09:16:40;3.70;;;1.38;;
67819;SDS011;54618;52.018;5.576;2023-06-14T09:19:06;11.30;;;1.80;;
67819;SDS011;54618;52.018;5.576;2023-06-14T09:21:33;11.50;;;1.58;;
67819;SDS011;54618;52.018;5.576;2023-06-14T09:24:01;6.80;;;1.37;;
67819;SDS011;54618;52.018;5.576;2023-06-14T09:26:27;6.22;;;1.48;;
67819;SDS011;54618;52.018;5.576;2023-06-14T09:28:53;5.05;;;1.38;;
67819;SDS011;54618;52.018;5.576;2023-06-14T09:31:20;3.65;;;1.20;;
67819;SDS011;54618;52.018;5.576;2023-06-14T09:33:50;7.40;;;1.23;;
67819;SDS011;54618;52.018;5.576;2023-06-14T09:36:16;14.15;;;1.80;;
67819;SDS011;54618;52.018;5.576;2023-06-14T09:38:53;8.70;;;1.42;;
67819;SDS011;54618;52.018;5.576;2023-06-14T09:41:33;3.78;;;1.27;;
67819;SDS011;54618;52.018;5.576;2023-06-14T09:44:00;7.57;;;1.67;;
67819;SDS011;54618;52.018;5.576;2023-06-14T09:46:27;8.27;;;1.73;;
67819;SDS011;54618;52.018;5.576;2023-06-14T09:48:54;13.48;;;2.00;;
67819;SDS011;54618;52.018;5.576;2023-06-14T09:51:20;23.20;;;2.00;;
67819;SDS011;54618;52.018;5.576;2023-06-14T09:53:48;10.63;;;1.75;;
67819;SDS011;54618;52.018;5.576;2023-06-14T09:56:28;13.20;;;1.77;;
67819;SDS011;54618;52.018;5.576;2023-06-14T09:58:58;25.83;;;2.83;;
67819;SDS011;54618;52.018;5.576;2023-06-14T10:01:25;12.70;;;1.65;;
67819;SDS011;54618;52.018;5.576;2023-06-14T10:04:06;8.43;;;1.70;;
67819;SDS011;54618;52.018;5.576;2023-06-14T10:06:36;4.25;;;1.20;;
67819;SDS011;54618;52.018;5.576;2023-06-14T10:09:04;6.38;;;1.40;;
67819;SDS011;54618;52.018;5.576;2023-06-14T10:11:33;4.65;;;1.02;;
67819;SDS011;54618;52.018;5.576;2023-06-14T10:14:01;7.10;;;1.40;;
67819;SDS011;54618;52.018;5.576;2023-06-14T10:16:30;7.03;;;1.50;;
67819;SDS011;54618;52.018;5.576;2023-06-14T10:19:32;9.75;;;1.50;;
67819;SDS011;54618;52.018;5.576;2023-06-14T10:22:12;7.00;;;1.35;;
67819;SDS011;54618;52.018;5.576;2023-06-14T10:24:43;4.78;;;1.30;;
67819;SDS011;54618;52.018;5.576;2023-06-14T10:27:13;7.05;;;1.42;;
67819;SDS011;54618;52.018;5.576;2023-06-14T10:32:22;4.85;;;1.23;;
67819;SDS011;54618;52.018;5.576;2023-06-14T10:34:56;8.18;;;1.63;;
67819;SDS011;54618;52.018;5.576;2023-06-14T10:37:26;36.30;;;2.95;;
67819;SDS011;54618;52.018;5.576;2023-06-14T10:39:52;6.45;;;1.40;;
67819;SDS011;54618;52.018;5.576;2023-06-14T10:42:18;11.77;;;1.58;;
67819;SDS011;54618;52.018;5.576;2023-06-14T10:44:54;6.75;;;1.40;;
67819;SDS011;54618;52.018;5.576;2023-06-14T10:47:33;1.95;;;1.25;;
67819;SDS011;54618;52.018;5.576;2023-06-14T10:50:09;4.40;;;1.50;;
67819;SDS011;54618;52.018;5.576;2023-06-14T10:52:40;2.90;;;1.17;;
67819;SDS011;54618;52.018;5.576;2023-06-14T10:55:08;11.43;;;1.95;;
67819;SDS011;54618;52.018;5.576;2023-06-14T10:57:38;5.93;;;1.50;;
67819;SDS011;54618;52.018;5.576;2023-06-14T11:00:06;17.73;;;1.80;;
67819;SDS011;54618;52.018;5.576;2023-06-14T11:03:05;7.47;;;1.77;;
67819;SDS011;54618;52.018;5.576;2023-06-14T11:05:58;3.47;;;1.25;;
67819;SDS011;54618;52.018;5.576;2023-06-14T11:11:17;5.53;;;1.25;;
67819;SDS011;54618;52.018;5.576;2023-06-14T11:13:46;16.83;;;1.83;;
67819;SDS011;54618;52.018;5.576;2023-06-14T11:16:19;9.07;;;1.88;;
67819;SDS011;54618;52.018;5.576;2023-06-14T11:18:45;7.38;;;1.33;;
67819;SDS011;54618;52.018;5.576;2023-06-14T11:21:11;7.20;;;1.52;;
67819;SDS011;54618;52.018;5.576;2023-06-14T11:23:36;2.95;;;1.13;;
67819;SDS011;54618;52.018;5.576;2023-06-14T11:26:02;9.10;;;1.40;;
67819;SDS011;54618;52.018;5.576;2023-06-14T11:28:39;29.52;;;2.35;;
67819;SDS011;54618;52.018;5.576;2023-06-14T11:31:05;3.67;;;1.13;;
67819;SDS011;54618;52.018;5.576;2023-06-14T11:33:31;9.68;;;1.42;;
67819;SDS011;54618;52.018;5.576;2023-06-14T11:35:57;10.05;;;1.45;;
67819;SDS011;54618;52.018;5.576;2023-06-14T11:38:23;8.35;;;1.40;;
67819;SDS011;54618;52.018;5.576;2023-06-14T11:40:49;4.85;;;1.35;;
67819;SDS011;54618;52.018;5.576;2023-06-14T11:43:15;10.70;;;1.85;;
67819;SDS011;54618;52.018;5.576;2023-06-14T11:45:41;8.43;;;1.58;;
67819;SDS011;54618;52.018;5.576;2023-06-14T11:48:07;43.65;;;3.25;;
67819;SDS011;54618;52.018;5.576;2023-06-14T11:50:32;8.45;;;1.42;;
67819;SDS011;54618;52.018;5.576;2023-06-14T11:53:03;4.00;;;1.10;;
67819;SDS011;54618;52.018;5.576;2023-06-14T11:55:32;2.30;;;1.10;;
67819;SDS011;54618;52.018;5.576;2023-06-14T11:58:05;8.07;;;1.30;;
67819;SDS011;54618;52.018;5.576;2023-06-14T12:00:31;4.07;;;1.10;;
67819;SDS011;54618;52.018;5.576;2023-06-14T12:02:57;7.32;;;1.30;;
67819;SDS011;54618;52.018;5.576;2023-06-14T12:05:23;10.18;;;1.80;;
67819;SDS011;54618;52.018;5.576;2023-06-14T12:07:50;29.55;;;3.33;;
67819;SDS011;54618;52.018;5.576;2023-06-14T12:10:18;4.82;;;1.20;;
67819;SDS011;54618;52.018;5.576;2023-06-14T12:12:44;6.18;;;1.30;;
67819;SDS011;54618;52.018;5.576;2023-06-14T12:15:10;9.23;;;1.55;;
67819;SDS011;54618;52.018;5.576;2023-06-14T12:17:38;28.15;;;2.63;;
67819;SDS011;54618;52.018;5.576;2023-06-14T12:20:13;24.27;;;2.38;;
67819;SDS011;54618;52.018;5.576;2023-06-14T12:22:50;13.05;;;2.00;;
67819;SDS011;54618;52.018;5.576;2023-06-14T12:25:27;5.45;;;1.42;;
67819;SDS011;54618;52.018;5.576;2023-06-14T12:27:58;5.63;;;1.40;;
67819;SDS011;54618;52.018;5.576;2023-06-14T12:30:24;3.97;;;1.23;;
67819;SDS011;54618;52.018;5.576;2023-06-14T12:32:50;13.23;;;1.83;;
67819;SDS011;54618;52.018;5.576;2023-06-14T12:35:16;8.05;;;1.60;;
67819;SDS011;54618;52.018;5.576;2023-06-14T12:37:46;6.57;;;1.70;;
67819;SDS011;54618;52.018;5.576;2023-06-14T12:40:12;8.02;;;1.38;;
67819;SDS011;54618;52.018;5.576;2023-06-14T12:42:38;10.20;;;1.85;;
67819;SDS011;54618;52.018;5.576;2023-06-14T12:45:04;2.42;;;1.30;;
67819;SDS011;54618;52.018;5.576;2023-06-14T12:47:30;12.40;;;2.00;;
67819;SDS011;54618;52.018;5.576;2023-06-14T12:49:55;8.63;;;1.60;;
67819;SDS011;54618;52.018;5.576;2023-06-14T12:52:21;6.65;;;1.60;;
67819;SDS011;54618;52.018;5.576;2023-06-14T12:54:49;4.13;;;1.35;;
67819;SDS011;54618;52.018;5.576;2023-06-14T12:57:15;3.30;;;1.45;;
67819;SDS011;54618;52.018;5.576;2023-06-14T12:59:41;13.05;;;2.00;;
67819;SDS011;54618;52.018;5.576;2023-06-14T13:02:24;7.88;;;1.60;;
67819;SDS011;54618;52.018;5.576;2023-06-14T13:04:50;4.60;;;1.27;;
67819;SDS011;54618;52.018;5.576;2023-06-14T13:07:16;6.60;;;1.30;;
67819;SDS011;54618;52.018;5.576;2023-06-14T13:09:44;19.55;;;2.17;;
67819;SDS011;54618;52.018;5.576;2023-06-14T13:12:10;6.43;;;1.35;;
67819;SDS011;54618;52.018;5.576;2023-06-14T13:14:37;11.93;;;1.58;;
67819;SDS011;54618;52.018;5.576;2023-06-14T13:17:03;10.90;;;1.20;;
67819;SDS011;54618;52.018;5.576;2023-06-14T13:19:29;9.32;;;1.42;;
67819;SDS011;54618;52.018;5.576;2023-06-14T13:21:55;3.72;;;1.25;;
67819;SDS011;54618;52.018;5.576;2023-06-14T13:24:20;6.40;;;1.70;;
67819;SDS011;54618;52.018;5.576;2023-06-14T13:26:48;8.20;;;1.23;;
67819;SDS011;54618;52.018;5.576;2023-06-14T13:29:14;4.32;;;1.15;;
67819;SDS011;54618;52.018;5.576;2023-06-14T13:31:39;4.88;;;1.13;;
67819;SDS011;54618;52.018;5.576;2023-06-14T13:34:05;4.10;;;1.20;;
67819;SDS011;54618;52.018;5.576;2023-06-14T13:36:31;3.92;;;1.10;;
67819;SDS011;54618;52.018;5.576;2023-06-14T13:38:56;2.53;;;1.00;;
67819;SDS011;54618;52.018;5.576;2023-06-14T13:41:23;3.65;;;1.20;;
67819;SDS011;54618;52.018;5.576;2023-06-14T13:43:56;6.75;;;1.23;;
67819;SDS011;54618;52.018;5.576;2023-06-14T13:46:22;5.97;;;1.13;;
67819;SDS011;54618;52.018;5.576;2023-06-14T13:48:47;3.97;;;1.10;;
67819;SDS011;54618;52.018;5.576;2023-06-14T13:51:13;4.15;;;0.93;;
67819;SDS011;54618;52.018;5.576;2023-06-14T13:53:38;3.35;;;1.10;;
67819;SDS011;54618;52.018;5.576;2023-06-14T13:56:04;3.30;;;1.13;;
67819;SDS011;54618;52.018;5.576;2023-06-14T13:58:30;2.63;;;0.90;;
67819;SDS011;54618;52.018;5.576;2023-06-14T14:00:55;11.40;;;1.67;;
67819;SDS011;54618;52.018;5.576;2023-06-14T14:03:21;4.70;;;1.00;;
67819;SDS011;54618;52.018;5.576;2023-06-14T14:05:51;13.15;;;1.65;;
67819;SDS011;54618;52.018;5.576;2023-06-14T14:08:16;18.15;;;1.80;;
67819;SDS011;54618;52.018;5.576;2023-06-14T14:10:41;3.92;;;1.00;;
67819;SDS011;54618;52.018;5.576;2023-06-14T14:13:07;4.68;;;1.20;;
67819;SDS011;54618;52.018;5.576;2023-06-14T14:15:32;4.82;;;1.27;;
67819;SDS011;54618;52.018;5.576;2023-06-14T14:17:59;2.65;;;1.00;;
67819;SDS011;54618;52.018;5.576;2023-06-14T14:20:25;7.43;;;1.10;;
67819;SDS011;54618;52.018;5.576;2023-06-14T14:22:51;1.60;;;0.85;;
67819;SDS011;54618;52.018;5.576;2023-06-14T14:25:16;2.63;;;1.10;;
67819;SDS011;54618;52.018;5.576;2023-06-14T14:27:42;5.07;;;1.10;;
67819;SDS011;54618;52.018;5.576;2023-06-14T14:30:08;4.60;;;1.00;;
67819;SDS011;54618;52.018;5.576;2023-06-14T14:32:33;2.85;;;0.90;;
67819;SDS011;54618;52.018;5.576;2023-06-14T14:34:59;14.60;;;1.48;;
67819;SDS011;54618;52.018;5.576;2023-06-14T14:37:24;1.30;;;0.90;;
67819;SDS011;54618;52.018;5.576;2023-06-14T14:39:50;10.38;;;1.20;;
67819;SDS011;54618;52.018;5.576;2023-06-14T14:42:16;2.63;;;0.82;;
67819;SDS011;54618;52.018;5.576;2023-06-14T14:44:41;2.78;;;1.00;;
67819;SDS011;54618;52.018;5.576;2023-06-14T14:47:07;2.53;;;0.90;;
67819;SDS011;54618;52.018;5.576;2023-06-14T14:49:32;8.10;;;1.10;;
67819;SDS011;54618;52.018;5.576;2023-06-14T14:51:58;11.27;;;1.77;;
67819;SDS011;54618;52.018;5.576;2023-06-14T14:54:24;15.65;;;2.28;;